Date,TemperatureHighF,TemperatureAvgF,TemperatureLowF,DewpointHighF,DewpointAvgF,DewpointLowF,HumidityHigh,HumidityAvg,HumidityLow,PressureMaxIn,PressureMinIn,WindSpeedMaxMPH,WindSpeedAvgMPH,GustSpeedMaxMPH,PrecipitationSumIn
2013-1-2,39.3,36.0,33.8,27.1,26.1,19.3,71,67,44,30.20,30.15,9,3,10,0.00
2013-1-3,41.7,34.8,28.5,28.4,24.5,21.9,80,66,53,30.35,30.19,11,3,13,0.00
2013-1-4,45.5,38.2,31.6,28.8,25.8,21.3,71,61,49,30.35,30.16,13,4,15,0.00
2013-1-5,51.9,43.5,37.9,37.7,31.9,24.4,77,64,51,30.18,29.99,16,5,19,0.00
2013-1-6,49.2,40.3,33.0,27.7,24.4,21.9,68,54,40,30.31,30.16,14,4,16,0.00
2013-1-7,49.8,42.0,33.8,30.9,25.7,19.5,61,52,43,30.20,29.94,14,5,17,0.00
2013-1-8,51.8,46.3,39.9,42.8,35.3,28.7,79,66,61,30.00,29.84,14,4,19,0.00
2013-1-9,49.6,48.0,46.9,46.8,44.7,42.9,90,88,81,30.14,29.93,20,6,21,0.00
2013-1-10,56.8,52.5,49.4,53.8,49.2,45.8,91,89,84,29.93,29.62,14,3,16,0.00
2013-1-11,65.8,55.2,47.6,51.6,47.2,43.0,85,75,58,29.69,29.47,19,8,22,0.00
2013-1-12,59.1,39.8,27.6,46.1,26.6,16.3,70,60,38,29.95,29.63,30,12,30,0.00
2013-1-13,31.6,25.9,21.9,16.7,13.6,11.2,65,59,47,30.22,29.92,22,10,23,0.00
2013-1-21,38.3,36.9,35.7,18.5,17.8,17.2,47,46,44,30.17,30.15,5,3,6,0.00
2013-1-22,55.2,43.2,30.9,33.4,25.6,16.4,59,50,42,30.16,29.97,15,3,15,0.00
2013-1-23,66.0,53.2,39.9,51.2,42.1,31.2,79,66,57,30.08,29.89,13,3,13,0.00
2013-1-24,54.8,42.6,34.1,45.2,31.2,24.3,75,64,57,30.09,29.96,16,6,29,0.00
2013-1-25,46.9,37.8,30.3,35.6,29.5,23.7,82,72,63,30.12,29.99,15,4,15,0.00
2013-1-26,47.3,43.0,37.5,42.0,36.2,29.0,84,77,68,30.09,29.91,13,4,17,0.00
2013-1-27,63.3,53.9,45.6,57.5,50.0,41.4,93,87,80,29.92,29.63,21,8,23,0.00
2013-1-28,70.8,65.7,60.4,63.3,60.0,55.7,90,82,74,29.74,29.53,21,10,32,0.00
2013-1-29,67.2,59.4,43.3,61.7,53.7,36.6,88,81,73,29.54,29.25,22,6,30,0.22
2013-1-30,45.5,40.6,36.1,36.6,27.7,21.8,77,61,41,29.93,29.51,23,8,27,0.00
2013-1-31,56.1,41.1,28.9,30.7,24.1,15.2,60,51,33,30.29,29.89,21,6,28,0.00
2013-2-1,48.2,35.8,25.3,29.4,19.7,12.2,59,52,42,30.32,29.96,16,5,20,0.00
2013-2-2,56.1,46.1,34.8,36.3,30.9,24.3,68,56,44,30.15,30.01,14,3,16,0.00
2013-2-3,58.1,50.2,40.6,35.7,31.6,27.2,60,49,40,30.17,29.73,15,5,18,0.00
2013-2-4,65.3,57.3,50.7,42.9,34.3,29.9,56,42,28,29.78,29.62,16,5,22,0.00
2013-2-5,63.5,52.6,42.6,50.5,39.5,29.2,79,62,45,29.87,29.76,9,1,9,0.00
2013-2-6,57.5,53.5,49.8,54.6,49.1,43.2,90,85,75,29.86,29.67,17,5,19,0.00
2013-2-7,63.1,53.8,44.7,56.9,48.6,35.6,91,83,69,30.03,29.61,27,7,27,0.00
2013-2-8,53.7,45.3,35.7,38.1,33.7,28.6,77,64,50,30.18,29.98,10,4,12,0.00
2013-2-9,48.0,44.5,42.6,45.2,37.5,32.6,90,77,64,29.98,29.52,23,9,23,0.00
2013-2-10,59.1,51.7,44.6,49.0,35.4,25.7,91,57,37,29.90,29.48,18,6,20,0.00
2013-2-11,53.4,45.1,36.1,28.7,26.2,23.2,59,48,37,30.10,29.90,15,5,18,0.00
2013-2-12,47.4,38.4,34.7,32.2,30.4,27.0,87,74,47,29.92,29.81,19,5,19,0.00
2013-2-13,52.5,42.2,34.7,39.6,32.4,28.4,88,70,42,29.95,29.80,10,2,12,0.00
2013-2-14,59.9,48.0,37.9,35.9,32.2,27.6,70,55,37,30.07,29.81,21,5,32,0.00
2013-2-15,43.8,39.3,32.1,34.7,22.9,16.9,70,53,36,30.29,30.07,19,7,22,0.00
2013-2-16,52.3,41.2,32.7,35.5,27.4,21.7,80,59,41,30.27,29.92,13,4,19,0.00
2013-2-17,67.1,53.3,40.2,40.8,32.4,27.7,62,47,30,29.92,29.55,25,9,28,0.00
2013-2-18,57.9,53.9,45.3,48.6,36.6,25.2,74,53,38,30.00,29.45,30,10,32,0.00
2013-2-19,54.1,45.8,37.2,30.4,25.7,23.3,62,46,34,30.20,30.00,11,3,14,0.00
2013-2-20,47.3,40.6,37.9,33.4,31.5,25.5,79,71,43,30.05,29.73,21,6,21,0.00
2013-2-21,45.3,37.0,27.5,39.1,31.7,19.3,86,81,71,29.90,29.51,18,6,20,0.02
2013-2-22,38.3,30.6,23.9,23.1,19.4,15.8,72,63,52,30.05,29.88,13,5,15,0.00
2013-2-23,46.2,36.7,27.1,30.9,24.3,17.4,69,61,52,30.00,29.74,11,3,11,0.00
2013-2-24,60.6,48.2,35.9,41.3,33.9,24.7,70,58,49,29.76,29.50,26,8,29,0.00
2013-2-25,51.0,41.3,34.1,37.3,35.0,30.7,88,79,55,29.59,29.33,27,10,28,0.10
2013-2-26,47.1,39.2,33.9,33.5,30.7,26.9,88,73,53,29.80,29.48,27,9,31,0.00
2013-2-27,45.3,37.7,31.6,28.5,26.6,24.6,79,65,48,30.10,29.78,24,7,30,0.00
2013-2-28,47.4,39.0,31.8,30.1,26.9,24.4,76,63,46,30.14,30.03,19,6,24,0.00
2013-3-1,44.2,36.4,30.7,30.1,26.3,22.3,77,67,56,30.22,30.09,23,7,23,0.00
2013-3-2,52.1,38.4,27.1,34.2,24.6,19.8,76,58,45,30.30,30.03,12,3,17,0.00
2013-3-3,66.0,51.3,39.0,39.3,32.4,25.2,60,49,37,30.04,29.42,22,9,28,0.00
2013-3-4,66.7,56.9,45.1,44.1,37.3,32.9,68,49,41,29.88,29.33,33,10,38,0.00
2013-3-5,48.5,42.3,35.4,34.5,23.6,17.4,76,49,34,30.26,29.89,28,10,34,0.00
2013-3-6,54.3,44.1,32.9,29.3,23.5,19.8,67,45,33,30.33,30.02,9,2,11,0.00
2013-3-7,67.8,55.4,43.3,33.4,28.1,21.9,50,35,27,30.02,29.82,24,9,30,0.00
2013-3-8,60.9,57.2,54.1,51.0,43.4,30.8,78,61,37,29.94,29.74,21,10,26,0.00
2013-3-9,61.5,58.8,56.1,57.2,53.5,50.7,87,83,75,29.74,29.44,24,7,36,0.00
2013-3-10,56.4,43.0,37.7,48.1,33.8,27.2,83,70,63,29.94,29.47,21,8,28,0.00
2013-3-11,52.7,40.9,31.2,30.3,25.2,20.7,71,55,35,29.95,29.81,15,4,17,0.00
2013-3-12,58.4,49.9,39.7,37.9,30.3,22.4,60,47,38,30.19,29.85,12,3,14,0.00
2013-3-13,62.7,51.7,41.0,36.7,31.4,27.0,62,46,37,30.31,30.11,13,2,15,0.00
2013-3-14,75.7,60.7,48.7,46.1,38.7,31.4,55,45,32,30.15,29.89,18,5,18,0.00
2013-3-15,80.2,67.8,56.4,49.2,45.4,42.6,60,46,32,29.92,29.57,19,7,23,0.00
2013-3-16,78.6,67.2,54.3,52.7,46.9,38.9,57,49,39,29.63,29.46,20,8,24,0.00
2013-3-17,54.3,46.1,42.4,39.7,36.7,33.6,76,70,56,29.70,29.51,20,7,26,0.00
2013-3-18,61.1,50.3,41.7,40.5,35.0,26.7,85,60,30,29.88,29.49,23,7,24,0.00
2013-3-19,61.5,53.4,44.2,40.7,31.4,25.9,63,44,30,30.04,29.81,20,2,21,0.00
2013-3-24,43.3,37.8,31.8,25.3,22.2,17.5,73,54,40,30.09,29.93,24,10,31,0.00
2013-3-25,43.8,37.5,31.1,21.0,17.9,15.3,61,46,33,30.27,30.08,22,7,27,0.00
2013-3-26,55.2,41.9,30.0,29.4,21.1,16.0,59,44,34,30.34,30.07,11,2,15,0.00
2013-3-27,68.1,54.5,42.4,40.4,31.7,23.2,50,42,36,30.08,29.83,26,9,29,0.00
2013-3-28,72.8,62.1,52.5,54.2,46.8,37.8,69,58,47,29.97,29.81,28,8,28,0.00
2013-3-29,72.1,65.4,59.3,61.5,56.0,51.9,82,72,63,29.94,29.80,15,6,18,0.00
2013-3-30,79.5,69.0,59.5,62.3,57.3,53.0,82,67,50,29.84,29.62,13,4,14,0.00
2013-3-31,69.6,62.6,53.7,57.1,48.4,42.2,85,62,39,29.84,29.67,35,6,38,0.00
2013-4-1,70.3,59.5,47.4,47.9,43.1,37.0,67,55,41,29.96,29.80,19,4,23,0.00
2013-4-2,47.4,41.5,39.0,37.9,36.0,33.6,88,81,65,30.02,29.93,21,9,31,0.04
2013-4-3,41.5,39.5,37.9,38.2,36.1,34.1,89,87,86,30.08,29.94,15,7,20,0.00
2013-4-4,54.6,44.4,36.6,41.1,37.6,33.4,89,78,58,30.08,29.94,13,5,15,0.00
2013-4-5,66.2,53.4,41.5,49.6,42.7,35.0,82,68,52,30.08,29.75,21,5,21,0.00
2013-4-6,73.9,63.9,55.2,54.1,50.0,45.1,73,61,49,29.74,29.58,24,7,32,0.00
2013-4-7,69.4,64.3,59.0,60.4,56.4,51.7,83,76,64,29.68,29.47,27,8,27,0.00
2013-4-8,76.4,68.5,63.5,64.7,60.5,57.5,83,76,63,29.50,29.36,22,10,28,0.00
2013-4-9,77.9,67.6,40.8,65.0,57.5,33.1,79,71,54,29.72,29.38,23,10,27,0.00
2013-4-10,41.9,36.2,32.9,34.8,31.5,29.4,88,83,74,29.93,29.69,99,6,99,0.00
2013-4-11,55.9,43.6,33.8,37.7,32.1,27.2,79,65,47,29.85,29.59,11,3,15,0.00
2013-4-12,63.8,52.4,41.0,41.5,37.2,31.1,72,57,42,29.88,29.66,19,4,19,0.00
2013-4-13,73.4,61.8,49.6,52.4,45.1,37.9,70,55,40,29.85,29.51,23,8,26,0.00
2013-4-14,80.9,68.9,58.4,60.0,53.6,45.8,69,59,48,29.53,29.25,26,9,30,0.00
2013-4-15,81.6,69.3,60.4,60.0,50.0,39.1,69,51,43,29.61,29.39,17,6,23,0.00
2013-4-16,62.4,56.1,52.8,49.0,46.6,44.1,80,71,56,29.78,29.58,18,7,18,0.00
2013-4-17,75.3,64.6,52.8,67.5,58.6,46.7,91,81,71,29.72,29.32,28,8,34,0.00
2013-5-16,71.2,69.3,68.0,62.5,61.6,61.0,79,77,74,29.64,29.61,0,0,0,0.00
2013-5-17,73.7,70.0,65.8,69.9,65.5,60.3,90,86,78,29.67,29.60,10,2,13,0.00
2013-5-18,89.4,78.0,69.8,77.2,70.8,61.6,92,80,57,29.69,29.45,16,2,57,0.08
2013-5-19,86.9,76.5,68.5,74.2,67.9,60.6,83,75,62,29.58,29.27,15,1,21,0.02
2013-5-20,84.7,76.8,72.1,75.0,68.1,63.9,82,75,62,29.56,29.37,0,0,14,0.00
2013-5-21,72.3,64.4,58.2,63.9,56.6,51.8,84,76,68,29.83,29.53,0,0,0,0.12
2013-5-22,82.0,69.5,58.4,63.3,57.8,53.3,85,68,51,29.74,29.62,0,0,0,0.00
2013-5-23,73.0,70.2,67.8,59.6,58.7,58.0,71,67,63,29.76,29.69,0,0,0,0.00
2013-5-29,74.8,73.6,71.9,68.6,65.6,61.2,81,76,69,29.47,29.40,0,0,0,0.00
2013-5-30,85.6,76.3,71.2,75.2,68.3,60.6,84,77,68,29.49,29.39,0,0,0,0.00
2013-5-31,89.4,79.4,65.4,77.2,71.4,60.8,88,77,61,29.59,29.30,43,2,104,0.00
2013-6-2,72.1,69.7,67.8,55.0,54.6,54.0,63,59,54,29.81,29.78,0,0,0,0.00
2013-6-3,84.5,72.7,62.2,65.5,59.9,54.2,78,65,50,29.83,29.58,0,0,0,0.00
2013-6-4,75.7,72.6,66.7,63.8,62.9,61.9,85,72,66,29.79,29.61,29,0,104,0.00
2013-6-6,78.0,74.8,69.6,61.5,58.5,55.2,66,57,49,29.78,29.69,0,0,0,0.00
2013-6-7,82.9,72.8,63.8,60.0,57.4,55.0,77,60,42,29.83,29.67,0,0,0,0.00
2013-6-8,83.4,75.5,68.3,64.9,60.5,57.1,68,60,52,29.72,29.52,0,0,0,0.00
2013-6-9,88.3,77.7,68.0,66.2,62.0,56.8,84,61,35,29.76,29.53,0,0,0,0.00
2013-6-10,94.6,83.4,73.2,71.9,67.8,62.3,75,60,43,29.71,29.60,0,0,0,0.00
2013-6-11,94.1,85.1,75.3,72.2,67.9,61.6,69,57,46,29.76,29.62,0,0,0,0.00
2013-6-12,93.9,85.6,77.5,73.3,70.1,67.1,72,61,50,29.77,29.65,0,0,0,0.00
2013-6-13,96.6,87.0,77.5,75.6,71.6,67.3,73,61,47,29.81,29.64,0,0,0,0.00
2013-6-14,95.5,87.2,79.3,74.7,71.6,69.2,72,61,47,29.77,29.64,0,0,0,0.00
2013-6-15,85.6,82.0,76.8,75.7,72.5,69.0,81,73,62,29.80,29.65,71,0,71,0.00
2013-6-16,94.6,83.3,75.2,76.3,72.1,67.8,80,70,53,29.80,29.60,28,1,28,0.00
2013-6-17,83.4,76.8,68.1,72.6,66.9,61.9,85,72,59,29.81,29.56,111,100,111,0.00
2013-6-18,88.3,78.6,69.9,69.4,66.6,64.0,83,68,50,29.83,29.69,111,111,111,0.00
2013-6-19,84.9,79.3,73.2,72.2,69.0,64.9,81,71,64,29.82,29.66,111,111,111,0.00
2013-6-20,93.9,84.1,75.3,76.6,71.7,68.0,83,68,52,29.77,29.63,111,111,111,0.00
2013-6-21,93.9,85.4,78.0,76.6,70.7,67.4,71,62,51,29.78,29.68,111,76,111,0.00
2013-6-22,93.5,85.4,77.9,72.8,68.5,66.5,70,58,44,29.76,29.59,0,0,0,0.00
2013-6-23,93.9,85.9,78.6,71.9,68.8,66.6,71,58,45,29.69,29.59,0,0,0,0.00
2013-6-24,92.4,84.8,78.2,72.9,69.1,66.4,69,60,50,29.76,29.60,0,0,0,0.00
2013-6-25,92.8,85.5,78.6,75.3,70.4,66.3,69,61,54,29.68,29.51,0,0,0,0.00
2013-6-26,96.6,87.7,79.5,77.2,71.1,64.0,65,58,52,29.67,29.54,0,0,0,0.00
2013-6-27,100.4,89.0,80.4,78.6,73.1,64.6,71,60,44,29.83,29.56,0,0,0,0.00
2013-6-28,95.7,86.5,77.9,73.5,67.6,63.5,68,55,38,29.76,29.63,0,0,0,0.00
2013-6-29,92.1,84.5,77.1,68.1,63.4,59.7,63,50,36,29.77,29.60,0,0,0,0.00
2013-6-30,86.0,78.8,70.7,60.3,57.9,55.6,60,49,39,29.81,29.67,0,0,0,0.00
2013-7-1,84.0,75.3,66.0,59.6,54.8,52.1,69,50,35,29.90,29.80,57,56,57,0.00
2013-7-2,86.0,76.4,66.0,57.5,54.8,52.7,65,48,34,29.94,29.79,57,57,57,0.00
2013-7-3,88.3,78.8,68.9,59.8,56.7,54.0,65,48,32,29.89,29.71,57,57,57,0.00
2013-7-4,92.4,82.7,74.1,65.9,59.4,53.7,58,46,34,29.81,29.66,57,57,57,0.00
2013-7-5,92.8,82.4,73.4,68.3,63.5,60.4,69,54,36,29.82,29.61,57,57,57,0.00
2013-7-6,95.9,84.9,77.1,70.4,64.8,60.5,59,52,40,29.72,29.61,57,57,57,0.00
2013-7-7,97.1,87.5,78.4,72.2,66.5,62.1,62,51,39,29.78,29.68,57,57,57,0.00
2013-7-8,98.4,87.1,79.5,74.8,69.4,64.4,68,56,43,29.83,29.72,57,57,57,0.00
2013-7-9,100.2,89.8,79.8,73.4,69.8,66.8,67,53,39,29.83,29.68,57,57,57,0.00
2013-7-10,100.9,89.7,81.5,72.5,67.8,63.1,58,49,37,29.78,29.65,57,57,57,0.00
2013-7-11,99.5,88.9,79.8,73.3,70.3,65.8,68,55,41,29.77,29.61,57,57,57,0.00
2013-7-12,99.5,88.4,78.9,74.5,70.6,68.1,72,57,40,29.75,29.64,57,57,57,0.00
2013-7-13,98.2,89.1,80.4,73.3,69.7,67.1,67,54,42,29.79,29.62,57,57,57,0.00
2013-7-14,88.1,75.1,69.2,68.7,65.5,61.3,83,73,51,29.87,29.67,57,57,57,0.00
2013-7-15,76.1,69.6,65.3,69.3,64.2,60.8,90,83,76,29.95,29.81,57,57,57,0.00
2013-7-16,86.9,76.1,70.3,73.9,69.7,66.4,89,81,63,30.03,29.91,57,57,57,0.00
2013-7-17,86.1,77.8,72.3,76.7,72.0,68.2,89,82,69,30.07,29.96,57,57,57,0.00
2013-7-18,91.5,82.5,74.1,75.7,71.8,69.3,87,71,52,30.00,29.78,57,57,57,0.00
2013-7-19,93.9,85.3,77.1,73.5,70.8,68.6,78,63,47,29.84,29.66,57,57,57,0.00
2013-7-20,94.8,85.0,76.8,76.6,71.7,68.7,79,66,49,29.75,29.57,57,57,57,0.00
2013-7-21,95.1,86.3,78.4,76.2,71.8,68.7,75,63,50,29.68,29.54,57,57,57,0.00
2013-7-22,96.6,87.8,79.1,78.0,73.1,69.5,74,63,51,29.67,29.57,57,57,57,0.00
2013-7-23,97.5,88.9,81.1,78.8,73.9,69.9,71,62,51,29.69,29.51,57,57,57,0.00
2013-7-24,89.4,82.1,72.5,73.9,70.2,64.9,81,68,59,29.86,29.57,57,57,57,0.00
2013-7-25,87.6,81.7,75.9,74.7,71.1,68.3,82,71,63,29.86,29.73,57,57,57,0.00
2013-7-26,81.3,77.1,71.4,72.6,70.6,67.6,89,81,70,29.84,29.70,57,57,57,0.00
2013-7-27,87.6,78.8,70.8,72.5,69.4,65.6,88,74,56,29.85,29.70,57,57,57,0.00
2013-7-28,88.5,80.3,72.1,72.7,68.5,65.0,79,68,52,29.80,29.66,57,57,57,0.00
2013-7-29,90.1,82.5,75.5,76.8,72.0,67.4,79,71,63,29.75,29.62,57,57,57,0.00
2013-7-30,90.1,82.1,74.6,77.1,72.8,67.4,83,74,60,29.85,29.67,57,57,57,0.00
2013-7-31,90.8,83.5,77.0,75.6,73.6,71.7,87,73,55,29.87,29.75,57,57,57,0.00
2013-8-1,92.8,83.9,75.9,76.3,72.7,69.0,81,70,57,29.87,29.69,57,57,57,0.00
2013-8-2,98.4,87.9,79.5,77.6,73.4,69.4,79,64,46,29.72,29.54,57,57,57,0.00
2013-8-3,95.7,87.9,80.6,77.2,71.8,66.8,66,59,53,29.79,29.62,57,57,57,0.00
2013-8-4,95.7,87.3,80.7,78.2,73.4,70.4,73,64,49,29.84,29.66,57,57,57,0.00
2013-8-5,98.2,88.6,80.2,76.7,72.0,68.4,69,59,47,29.73,29.54,57,57,57,0.00
2013-8-6,99.5,89.7,81.3,75.7,70.3,65.4,62,53,42,29.63,29.49,57,57,57,0.00
2013-8-7,93.3,87.7,81.6,76.8,71.5,66.1,71,59,50,29.64,29.54,57,57,57,0.00
2013-8-8,89.4,81.3,74.1,77.4,73.2,68.2,83,77,65,29.72,29.56,57,57,57,0.00
2013-8-9,86.7,79.6,72.8,75.0,71.3,67.9,85,76,64,29.85,29.68,57,57,57,0.00
2013-8-10,84.0,76.6,69.6,70.4,67.8,63.8,86,75,60,29.94,29.80,113,68,113,0.00
2013-8-11,90.5,81.5,73.2,73.8,70.8,66.6,82,71,57,29.90,29.75,113,113,113,0.00
2013-8-12,93.0,84.7,78.9,77.4,73.4,70.1,78,69,58,29.81,29.66,113,113,113,0.00
2013-8-13,83.3,78.2,75.0,74.2,71.4,68.0,87,80,68,29.85,29.73,113,113,113,0.00
2013-8-14,84.7,76.5,69.6,70.3,67.1,64.5,85,74,58,29.91,29.78,113,113,113,0.00
2013-8-15,84.3,77.1,72.1,71.8,66.6,63.6,75,70,64,29.89,29.74,113,113,113,0.00
2013-8-16,81.6,73.7,67.6,67.9,64.7,61.2,84,74,62,29.92,29.79,113,113,113,0.00
2013-8-17,82.0,75.3,68.5,66.5,64.1,61.0,78,69,58,29.94,29.80,113,113,113,0.00
2013-8-18,85.1,77.0,68.9,69.5,65.0,60.6,77,67,57,29.92,29.79,113,113,113,0.00
2013-8-19,88.7,79.4,71.7,71.2,66.6,62.6,75,65,52,29.88,29.73,113,113,113,0.00
2013-8-20,91.0,81.3,72.6,72.1,66.1,61.4,70,61,46,29.85,29.72,113,113,113,0.00
2013-8-21,92.1,82.6,73.9,71.9,66.7,62.4,69,60,45,29.87,29.76,113,113,113,0.00
2013-8-22,92.4,84.0,74.8,73.6,69.5,63.5,69,62,53,29.88,29.71,113,113,113,0.00
2013-8-23,93.3,84.6,78.0,75.1,70.8,67.4,72,64,52,29.82,29.70,113,113,113,0.00
2013-8-24,93.9,84.7,76.8,76.3,71.3,67.4,75,65,53,29.87,29.77,113,113,113,0.00
2013-8-25,93.7,85.4,77.5,74.4,71.2,67.8,74,63,51,29.95,29.84,113,113,113,0.00
2013-8-26,92.3,84.7,77.5,73.6,69.7,65.8,69,61,51,29.97,29.83,113,113,113,0.00
2013-8-27,88.7,82.3,75.5,72.8,68.2,63.3,71,63,56,29.90,29.78,113,113,113,0.00
2013-8-28,92.6,83.8,75.5,73.8,70.2,66.2,75,64,51,29.86,29.74,113,113,113,0.00
2013-8-29,96.4,86.8,77.9,71.6,68.5,64.8,66,55,42,29.85,29.71,113,113,113,0.00
2013-8-30,98.2,88.4,78.9,71.6,68.3,65.2,64,53,39,29.79,29.61,113,113,113,0.00
2013-8-31,100.2,89.2,79.5,71.9,67.2,63.5,59,49,36,29.68,29.52,113,113,113,0.00
2013-9-1,92.8,85.7,78.9,72.3,67.8,64.0,65,56,45,29.69,29.55,113,113,113,0.00
2013-9-2,88.3,81.4,75.0,70.8,66.0,60.7,82,61,41,29.82,29.69,113,113,113,0.00
2013-9-3,88.1,78.7,69.9,64.8,61.9,59.6,73,57,42,29.86,29.72,113,113,113,0.00
2013-9-4,91.9,81.0,71.2,71.8,64.8,58.9,69,59,44,29.90,29.78,113,113,113,0.00
2013-9-5,92.8,83.0,74.1,71.6,65.8,61.5,65,57,44,29.92,29.80,113,113,113,0.00
2013-9-6,94.8,84.7,75.9,71.0,65.7,60.2,60,54,42,29.89,29.72,113,113,113,0.00
2013-9-7,96.0,85.8,77.1,70.3,65.6,62.0,60,52,39,29.77,29.61,113,113,113,0.00
2013-9-8,94.1,85.2,76.6,70.3,64.8,60.9,66,51,38,29.72,29.58,113,113,113,0.00
2013-9-9,91.5,83.5,75.5,68.4,62.6,59.2,64,50,36,29.73,29.60,113,113,113,0.00
2013-9-10,90.6,82.9,75.7,67.7,63.1,59.5,65,52,40,29.82,29.67,113,113,113,0.00
2013-9-11,91.9,82.8,74.1,67.8,62.5,56.2,62,51,42,29.87,29.71,113,113,113,0.00
2013-9-12,91.5,81.9,76.1,69.8,66.3,62.9,77,60,46,29.81,29.67,113,89,113,0.00
2013-9-13,82.7,76.6,71.0,69.0,66.6,58.9,86,72,57,29.77,29.64,3,3,3,0.00
2013-9-14,82.4,75.6,69.0,63.9,59.4,54.0,65,58,50,29.74,29.62,3,3,3,0.00
2013-9-15,90.5,79.9,71.2,67.5,60.6,50.5,60,52,44,29.73,29.63,3,3,3,0.00
2013-9-16,87.0,80.3,73.7,69.9,66.9,64.4,79,64,53,29.86,29.70,3,3,3,0.00
2013-9-17,85.2,76.4,73.5,72.7,69.6,66.6,95,80,57,29.80,29.67,3,3,3,0.00